sensor_id;sensor_type;location;lat;lon;timestamp;P1;durP1;ratioP1;P2;durP2;ratioP2
27201;SDS011;14717;46.924;15.474;2023-04-03T00:00:39;1.70;;;1.00;;
27201;SDS011;14717;46.924;15.474;2023-04-03T00:03:05;2.17;;;1.30;;
27201;SDS011;14717;46.924;15.474;2023-04-03T00:05:30;1.88;;;1.30;;
27201;SDS011;14717;46.924;15.474;2023-04-03T00:07:56;2.00;;;1.30;;
27201;SDS011;14717;46.924;15.474;2023-04-03T00:10:21;2.15;;;1.10;;
27201;SDS011;14717;46.924;15.474;2023-04-03T00:12:47;2.28;;;1.20;;
27201;SDS011;14717;46.924;15.474;2023-04-03T00:15:12;1.60;;;1.05;;
27201;SDS011;14717;46.924;15.474;2023-04-03T00:17:38;2.70;;;1.17;;
27201;SDS011;14717;46.924;15.474;2023-04-03T00:20:03;2.53;;;1.10;;
27201;SDS011;14717;46.924;15.474;2023-04-03T00:22:30;4.75;;;2.00;;
27201;SDS011;14717;46.924;15.474;2023-04-03T00:24:55;5.72;;;1.77;;
27201;SDS011;14717;46.924;15.474;2023-04-03T00:27:21;3.75;;;1.52;;
27201;SDS011;14717;46.924;15.474;2023-04-03T00:29:46;4.63;;;1.60;;
27201;SDS011;14717;46.924;15.474;2023-04-03T00:32:12;2.65;;;1.48;;
27201;SDS011;14717;46.924;15.474;2023-04-03T00:34:37;1.92;;;1.10;;
27201;SDS011;14717;46.924;15.474;2023-04-03T00:37:03;3.42;;;1.50;;
27201;SDS011;14717;46.924;15.474;2023-04-03T00:39:28;1.95;;;1.15;;
27201;SDS011;14717;46.924;15.474;2023-04-03T00:41:53;2.05;;;1.40;;
27201;SDS011;14717;46.924;15.474;2023-04-03T00:45:21;2.17;;;1.20;;
27201;SDS011;14717;46.924;15.474;2023-04-03T00:47:09;3.33;;;1.30;;
27201;SDS011;14717;46.924;15.474;2023-04-03T00:49:37;6.30;;;1.90;;
27201;SDS011;14717;46.924;15.474;2023-04-03T00:52:03;3.10;;;1.70;;
27201;SDS011;14717;46.924;15.474;2023-04-03T00:54:32;2.60;;;1.33;;
27201;SDS011;14717;46.924;15.474;2023-04-03T00:57:00;2.20;;;1.40;;
27201;SDS011;14717;46.924;15.474;2023-04-03T00:59:27;2.30;;;1.40;;
27201;SDS011;14717;46.924;15.474;2023-04-03T01:01:58;2.85;;;1.60;;
27201;SDS011;14717;46.924;15.474;2023-04-03T01:06:59;2.70;;;1.40;;
27201;SDS011;14717;46.924;15.474;2023-04-03T01:09:27;4.57;;;1.63;;
27201;SDS011;14717;46.924;15.474;2023-04-03T01:11:54;2.40;;;1.20;;
27201;SDS011;14717;46.924;15.474;2023-04-03T01:14:19;2.42;;;1.40;;
27201;SDS011;14717;46.924;15.474;2023-04-03T01:16:54;3.28;;;1.50;;
27201;SDS011;14717;46.924;15.474;2023-04-03T01:19:19;3.05;;;1.42;;
27201;SDS011;14717;46.924;15.474;2023-04-03T01:24:49;2.42;;;1.65;;
27201;SDS011;14717;46.924;15.474;2023-04-03T01:27:16;5.07;;;1.75;;
27201;SDS011;14717;46.924;15.474;2023-04-03T01:29:42;3.67;;;1.75;;
27201;SDS011;14717;46.924;15.474;2023-04-03T01:32:08;2.75;;;1.60;;
27201;SDS011;14717;46.924;15.474;2023-04-03T01:34:33;4.18;;;1.60;;
27201;SDS011;14717;46.924;15.474;2023-04-03T01:36:59;3.00;;;1.60;;
27201;SDS011;14717;46.924;15.474;2023-04-03T01:39:24;2.97;;;1.40;;
27201;SDS011;14717;46.924;15.474;2023-04-03T01:41:50;2.35;;;1.40;;
27201;SDS011;14717;46.924;15.474;2023-04-03T01:44:16;2.33;;;1.40;;
27201;SDS011;14717;46.924;15.474;2023-04-03T01:46:41;3.13;;;1.42;;
27201;SDS011;14717;46.924;15.474;2023-04-03T01:49:07;1.95;;;1.30;;
27201;SDS011;14717;46.924;15.474;2023-04-03T01:51:32;4.97;;;1.48;;
27201;SDS011;14717;46.924;15.474;2023-04-03T01:53:58;3.50;;;1.63;;
27201;SDS011;14717;46.924;15.474;2023-04-03T01:56:23;2.75;;;1.30;;
27201;SDS011;14717;46.924;15.474;2023-04-03T01:58:50;2.20;;;1.50;;
27201;SDS011;14717;46.924;15.474;2023-04-03T02:01:15;2.88;;;1.48;;
27201;SDS011;14717;46.924;15.474;2023-04-03T02:03:41;2.40;;;1.50;;
27201;SDS011;14717;46.924;15.474;2023-04-03T02:06:06;3.00;;;1.52;;
27201;SDS011;14717;46.924;15.474;2023-04-03T02:08:31;3.38;;;1.63;;
27201;SDS011;14717;46.924;15.474;2023-04-03T02:10:57;5.05;;;1.65;;
27201;SDS011;14717;46.924;15.474;2023-04-03T02:13:22;3.60;;;1.48;;
27201;SDS011;14717;46.924;15.474;2023-04-03T02:15:48;3.35;;;1.60;;
27201;SDS011;14717;46.924;15.474;2023-04-03T02:18:13;2.47;;;1.48;;
27201;SDS011;14717;46.924;15.474;2023-04-03T02:20:39;3.55;;;1.67;;
27201;SDS011;14717;46.924;15.474;2023-04-03T02:23:04;3.05;;;1.45;;
27201;SDS011;14717;46.924;15.474;2023-04-03T02:25:30;2.88;;;1.40;;
27201;SDS011;14717;46.924;15.474;2023-04-03T02:27:57;4.03;;;1.70;;
27201;SDS011;14717;46.924;15.474;2023-04-03T02:30:22;2.75;;;1.50;;
27201;SDS011;14717;46.924;15.474;2023-04-03T02:32:48;2.45;;;1.45;;
27201;SDS011;14717;46.924;15.474;2023-04-03T02:35:13;4.28;;;1.40;;
27201;SDS011;14717;46.924;15.474;2023-04-03T02:37:38;4.32;;;1.80;;
27201;SDS011;14717;46.924;15.474;2023-04-03T02:40:04;3.38;;;1.70;;
27201;SDS011;14717;46.924;15.474;2023-04-03T02:44:56;3.73;;;1.70;;
27201;SDS011;14717;46.924;15.474;2023-04-03T02:47:21;3.10;;;1.80;;
27201;SDS011;14717;46.924;15.474;2023-04-03T02:49:46;3.63;;;1.80;;
27201;SDS011;14717;46.924;15.474;2023-04-03T02:52:12;3.67;;;1.70;;
27201;SDS011;14717;46.924;15.474;2023-04-03T02:57:04;2.85;;;1.80;;
27201;SDS011;14717;46.924;15.474;2023-04-03T02:59:29;2.72;;;1.50;;
27201;SDS011;14717;46.924;15.474;2023-04-03T03:01:55;3.13;;;1.50;;
27201;SDS011;14717;46.924;15.474;2023-04-03T03:04:21;3.40;;;1.52;;
27201;SDS011;14717;46.924;15.474;2023-04-03T03:06:47;3.38;;;1.40;;
27201;SDS011;14717;46.924;15.474;2023-04-03T03:09:12;3.15;;;1.40;;
27201;SDS011;14717;46.924;15.474;2023-04-03T03:11:38;3.30;;;1.52;;
27201;SDS011;14717;46.924;15.474;2023-04-03T03:14:04;4.63;;;1.65;;
27201;SDS011;14717;46.924;15.474;2023-04-03T03:16:29;2.65;;;1.70;;
27201;SDS011;14717;46.924;15.474;2023-04-03T03:18:55;3.95;;;1.90;;
27201;SDS011;14717;46.924;15.474;2023-04-03T03:21:20;3.40;;;1.85;;
27201;SDS011;14717;46.924;15.474;2023-04-03T03:23:46;2.78;;;1.50;;
27201;SDS011;14717;46.924;15.474;2023-04-03T03:26:11;3.55;;;1.55;;
27201;SDS011;14717;46.924;15.474;2023-04-03T03:28:37;2.85;;;1.70;;
27201;SDS011;14717;46.924;15.474;2023-04-03T03:33:29;2.60;;;1.60;;
27201;SDS011;14717;46.924;15.474;2023-04-03T03:35:55;4.13;;;1.50;;
27201;SDS011;14717;46.924;15.474;2023-04-03T03:38:21;3.42;;;1.85;;
27201;SDS011;14717;46.924;15.474;2023-04-03T03:40:47;2.78;;;1.60;;
27201;SDS011;14717;46.924;15.474;2023-04-03T03:43:13;4.25;;;1.65;;
27201;SDS011;14717;46.924;15.474;2023-04-03T03:45:39;2.75;;;1.50;;
27201;SDS011;14717;46.924;15.474;2023-04-03T03:48:05;2.35;;;1.40;;
27201;SDS011;14717;46.924;15.474;2023-04-03T03:50:30;3.38;;;1.38;;
27201;SDS011;14717;46.924;15.474;2023-04-03T03:52:55;2.63;;;1.50;;
27201;SDS011;14717;46.924;15.474;2023-04-03T03:55:21;3.88;;;1.95;;
27201;SDS011;14717;46.924;15.474;2023-04-03T03:57:46;4.25;;;1.80;;
27201;SDS011;14717;46.924;15.474;2023-04-03T04:00:12;3.40;;;1.92;;
27201;SDS011;14717;46.924;15.474;2023-04-03T04:02:38;5.47;;;2.03;;
27201;SDS011;14717;46.924;15.474;2023-04-03T04:05:03;4.00;;;2.00;;
27201;SDS011;14717;46.924;15.474;2023-04-03T04:07:29;3.83;;;1.70;;
27201;SDS011;14717;46.924;15.474;2023-04-03T04:09:55;3.05;;;1.50;;
27201;SDS011;14717;46.924;15.474;2023-04-03T04:12:21;1.95;;;1.30;;
27201;SDS011;14717;46.924;15.474;2023-04-03T04:14:47;1.90;;;1.20;;
27201;SDS011;14717;46.924;15.474;2023-04-03T04:17:13;1.80;;;1.23;;
27201;SDS011;14717;46.924;15.474;2023-04-03T04:19:39;3.08;;;1.25;;
27201;SDS011;14717;46.924;15.474;2023-04-03T04:22:04;2.30;;;1.20;;
27201;SDS011;14717;46.924;15.474;2023-04-03T04:24:30;2.25;;;1.20;;
27201;SDS011;14717;46.924;15.474;2023-04-03T04:26:55;2.22;;;1.13;;
27201;SDS011;14717;46.924;15.474;2023-04-03T04:29:21;2.67;;;1.27;;
27201;SDS011;14717;46.924;15.474;2023-04-03T04:31:46;2.75;;;1.10;;
27201;SDS011;14717;46.924;15.474;2023-04-03T04:34:11;1.98;;;1.20;;
27201;SDS011;14717;46.924;15.474;2023-04-03T04:36:38;2.22;;;1.30;;
27201;SDS011;14717;46.924;15.474;2023-04-03T04:39:04;3.17;;;1.70;;
27201;SDS011;14717;46.924;15.474;2023-04-03T04:41:30;3.45;;;1.40;;
27201;SDS011;14717;46.924;15.474;2023-04-03T04:43:56;3.40;;;1.50;;
27201;SDS011;14717;46.924;15.474;2023-04-03T04:46:21;3.70;;;1.60;;
27201;SDS011;14717;46.924;15.474;2023-04-03T04:48:46;4.85;;;1.83;;
27201;SDS011;14717;46.924;15.474;2023-04-03T04:51:13;3.22;;;1.65;;
27201;SDS011;14717;46.924;15.474;2023-04-03T04:53:39;3.15;;;1.42;;
27201;SDS011;14717;46.924;15.474;2023-04-03T04:56:04;4.32;;;1.50;;
27201;SDS011;14717;46.924;15.474;2023-04-03T04:58:30;4.32;;;1.80;;
27201;SDS011;14717;46.924;15.474;2023-04-03T05:01:06;4.25;;;1.80;;
27201;SDS011;14717;46.924;15.474;2023-04-03T05:03:33;5.63;;;1.65;;
27201;SDS011;14717;46.924;15.474;2023-04-03T05:05:59;6.10;;;1.70;;
27201;SDS011;14717;46.924;15.474;2023-04-03T05:08:25;5.35;;;1.88;;
27201;SDS011;14717;46.924;15.474;2023-04-03T05:10:50;3.28;;;1.75;;
27201;SDS011;14717;46.924;15.474;2023-04-03T05:13:16;4.05;;;1.75;;
27201;SDS011;14717;46.924;15.474;2023-04-03T05:15:41;4.68;;;2.00;;
27201;SDS011;14717;46.924;15.474;2023-04-03T05:18:07;5.28;;;1.75;;
27201;SDS011;14717;46.924;15.474;2023-04-03T05:20:32;4.03;;;2.20;;
27201;SDS011;14717;46.924;15.474;2023-04-03T05:23:00;4.97;;;2.30;;
27201;SDS011;14717;46.924;15.474;2023-04-03T05:25:26;5.78;;;2.33;;
27201;SDS011;14717;46.924;15.474;2023-04-03T05:27:52;4.28;;;2.10;;
27201;SDS011;14717;46.924;15.474;2023-04-03T05:30:17;5.18;;;2.55;;
27201;SDS011;14717;46.924;15.474;2023-04-03T05:32:43;5.93;;;2.53;;
27201;SDS011;14717;46.924;15.474;2023-04-03T05:35:08;7.00;;;2.67;;
27201;SDS011;14717;46.924;15.474;2023-04-03T05:37:34;5.25;;;2.70;;
27201;SDS011;14717;46.924;15.474;2023-04-03T05:40:00;5.32;;;2.47;;
27201;SDS011;14717;46.924;15.474;2023-04-03T05:42:26;6.88;;;2.45;;
27201;SDS011;14717;46.924;15.474;2023-04-03T05:44:51;7.63;;;3.25;;
27201;SDS011;14717;46.924;15.474;2023-04-03T05:47:17;11.75;;;3.40;;
27201;SDS011;14717;46.924;15.474;2023-04-03T05:49:43;7.60;;;3.10;;
27201;SDS011;14717;46.924;15.474;2023-04-03T05:52:26;7.63;;;3.08;;
27201;SDS011;14717;46.924;15.474;2023-04-03T05:54:53;5.38;;;2.58;;
27201;SDS011;14717;46.924;15.474;2023-04-03T05:57:19;9.07;;;3.28;;
27201;SDS011;14717;46.924;15.474;2023-04-03T05:59:45;8.13;;;3.35;;
27201;SDS011;14717;46.924;15.474;2023-04-03T06:02:12;6.88;;;3.38;;
27201;SDS011;14717;46.924;15.474;2023-04-03T06:04:41;9.13;;;3.47;;
27201;SDS011;14717;46.924;15.474;2023-04-03T06:07:06;8.65;;;3.20;;
27201;SDS011;14717;46.924;15.474;2023-04-03T06:09:35;7.30;;;3.28;;
27201;SDS011;14717;46.924;15.474;2023-04-03T06:12:00;6.88;;;3.45;;
27201;SDS011;14717;46.924;15.474;2023-04-03T06:14:26;9.80;;;3.72;;
27201;SDS011;14717;46.924;15.474;2023-04-03T06:16:52;10.88;;;3.33;;
27201;SDS011;14717;46.924;15.474;2023-04-03T06:19:17;12.35;;;3.28;;
27201;SDS011;14717;46.924;15.474;2023-04-03T06:21:43;6.05;;;2.60;;
27201;SDS011;14717;46.924;15.474;2023-04-03T06:24:09;6.90;;;1.95;;
27201;SDS011;14717;46.924;15.474;2023-04-03T06:26:37;5.25;;;1.83;;
27201;SDS011;14717;46.924;15.474;2023-04-03T06:29:02;5.25;;;1.38;;
27201;SDS011;14717;46.924;15.474;2023-04-03T06:31:28;2.80;;;1.30;;
27201;SDS011;14717;46.924;15.474;2023-04-03T06:33:53;3.63;;;1.17;;
27201;SDS011;14717;46.924;15.474;2023-04-03T06:36:19;2.80;;;1.10;;
27201;SDS011;14717;46.924;15.474;2023-04-03T06:38:46;3.25;;;1.10;;
27201;SDS011;14717;46.924;15.474;2023-04-03T06:41:11;3.42;;;1.15;;
27201;SDS011;14717;46.924;15.474;2023-04-03T06:43:37;3.78;;;1.38;;
27201;SDS011;14717;46.924;15.474;2023-04-03T06:46:02;2.10;;;1.00;;
27201;SDS011;14717;46.924;15.474;2023-04-03T06:48:28;3.47;;;1.02;;
27201;SDS011;14717;46.924;15.474;2023-04-03T06:50:54;3.25;;;1.40;;
27201;SDS011;14717;46.924;15.474;2023-04-03T06:53:20;2.78;;;1.35;;
27201;SDS011;14717;46.924;15.474;2023-04-03T06:55:46;1.67;;;0.80;;
27201;SDS011;14717;46.924;15.474;2023-04-03T06:58:12;2.67;;;1.00;;
27201;SDS011;14717;46.924;15.474;2023-04-03T07:00:38;2.85;;;1.50;;
27201;SDS011;14717;46.924;15.474;2023-04-03T07:03:04;7.78;;;1.30;;
27201;SDS011;14717;46.924;15.474;2023-04-03T07:05:29;2.33;;;1.08;;
27201;SDS011;14717;46.924;15.474;2023-04-03T07:07:55;3.72;;;1.48;;
27201;SDS011;14717;46.924;15.474;2023-04-03T07:10:21;1.88;;;1.10;;
27201;SDS011;14717;46.924;15.474;2023-04-03T07:12:46;1.52;;;1.10;;
27201;SDS011;14717;46.924;15.474;2023-04-03T07:15:12;6.90;;;2.97;;
27201;SDS011;14717;46.924;15.474;2023-04-03T07:17:38;7.85;;;3.78;;
27201;SDS011;14717;46.924;15.474;2023-04-03T07:20:03;2.28;;;1.13;;
27201;SDS011;14717;46.924;15.474;2023-04-03T07:22:30;5.20;;;1.30;;
27201;SDS011;14717;46.924;15.474;2023-04-03T07:24:55;1.63;;;0.65;;
27201;SDS011;14717;46.924;15.474;2023-04-03T07:27:21;2.42;;;1.02;;
27201;SDS011;14717;46.924;15.474;2023-04-03T07:29:46;2.35;;;0.90;;
27201;SDS011;14717;46.924;15.474;2023-04-03T07:32:13;6.20;;;1.55;;
27201;SDS011;14717;46.924;15.474;2023-04-03T07:37:05;5.20;;;1.75;;
27201;SDS011;14717;46.924;15.474;2023-04-03T07:39:31;4.57;;;1.08;;
27201;SDS011;14717;46.924;15.474;2023-04-03T07:41:57;5.97;;;1.80;;
27201;SDS011;14717;46.924;15.474;2023-04-03T07:44:22;1.23;;;0.70;;
27201;SDS011;14717;46.924;15.474;2023-04-03T07:46:48;3.65;;;1.40;;
27201;SDS011;14717;46.924;15.474;2023-04-03T07:49:13;2.53;;;1.02;;
27201;SDS011;14717;46.924;15.474;2023-04-03T07:51:39;2.25;;;0.85;;
27201;SDS011;14717;46.924;15.474;2023-04-03T07:54:04;8.02;;;1.90;;
27201;SDS011;14717;46.924;15.474;2023-04-03T07:56:30;7.32;;;1.70;;
27201;SDS011;14717;46.924;15.474;2023-04-03T07:58:56;2.70;;;1.45;;
27201;SDS011;14717;46.924;15.474;2023-04-03T08:01:22;4.22;;;2.17;;
27201;SDS011;14717;46.924;15.474;2023-04-03T08:03:47;2.20;;;1.25;;
27201;SDS011;14717;46.924;15.474;2023-04-03T08:06:12;3.83;;;1.67;;
27201;SDS011;14717;46.924;15.474;2023-04-03T08:08:39;1.73;;;0.85;;
27201;SDS011;14717;46.924;15.474;2023-04-03T08:11:05;8.95;;;2.05;;
27201;SDS011;14717;46.924;15.474;2023-04-03T08:15:57;11.73;;;4.47;;
27201;SDS011;14717;46.924;15.474;2023-04-03T08:20:50;3.72;;;1.60;;
27201;SDS011;14717;46.924;15.474;2023-04-03T08:23:16;5.13;;;2.10;;
27201;SDS011;14717;46.924;15.474;2023-04-03T08:25:42;2.25;;;0.98;;
27201;SDS011;14717;46.924;15.474;2023-04-03T08:28:08;2.38;;;0.65;;
27201;SDS011;14717;46.924;15.474;2023-04-03T08:30:35;1.25;;;0.70;;
27201;SDS011;14717;46.924;15.474;2023-04-03T08:33:01;1.50;;;0.70;;
27201;SDS011;14717;46.924;15.474;2023-04-03T08:35:28;1.55;;;0.75;;
27201;SDS011;14717;46.924;15.474;2023-04-03T08:37:53;2.35;;;0.88;;
27201;SDS011;14717;46.924;15.474;2023-04-03T08:40:19;2.45;;;0.95;;
27201;SDS011;14717;46.924;15.474;2023-04-03T08:48:30;1.30;;;0.75;;
27201;SDS011;14717;46.924;15.474;2023-04-03T08:51:03;1.33;;;0.77;;
27201;SDS011;14717;46.924;15.474;2023-04-03T08:53:36;1.65;;;1.00;;
27201;SDS011;14717;46.924;15.474;2023-04-03T08:56:10;2.67;;;0.85;;
27201;SDS011;14717;46.924;15.474;2023-04-03T08:58:50;3.42;;;1.30;;
27201;SDS011;14717;46.924;15.474;2023-04-03T09:01:30;1.55;;;0.65;;
27201;SDS011;14717;46.924;15.474;2023-04-03T09:04:05;2.30;;;0.90;;
27201;SDS011;14717;46.924;15.474;2023-04-03T09:06:38;2.03;;;1.10;;
27201;SDS011;14717;46.924;15.474;2023-04-03T09:14:54;0.60;;;0.60;;
27201;SDS011;14717;46.924;15.474;2023-04-03T09:17:49;0.75;;;0.52;;
27201;SDS011;14717;46.924;15.474;2023-04-03T09:20:31;0.85;;;0.60;;
27201;SDS011;14717;46.924;15.474;2023-04-03T09:23:17;1.50;;;0.88;;
27201;SDS011;14717;46.924;15.474;2023-04-03T09:25:47;1.10;;;0.63;;
27201;SDS011;14717;46.924;15.474;2023-04-03T09:28:14;1.15;;;0.47;;
27201;SDS011;14717;46.924;15.474;2023-04-03T09:30:40;2.22;;;1.10;;
27201;SDS011;14717;46.924;15.474;2023-04-03T09:33:06;0.55;;;0.52;;
27201;SDS011;14717;46.924;15.474;2023-04-03T09:35:33;1.00;;;0.63;;
27201;SDS011;14717;46.924;15.474;2023-04-03T09:38:14;1.05;;;0.77;;
27201;SDS011;14717;46.924;15.474;2023-04-03T09:40:46;1.17;;;0.77;;
27201;SDS011;14717;46.924;15.474;2023-04-03T09:43:28;0.98;;;0.75;;
27201;SDS011;14717;46.924;15.474;2023-04-03T09:45:56;1.65;;;0.63;;
27201;SDS011;14717;46.924;15.474;2023-04-03T09:48:49;2.47;;;0.68;;
27201;SDS011;14717;46.924;15.474;2023-04-03T09:51:16;0.50;;;0.50;;
27201;SDS011;14717;46.924;15.474;2023-04-03T09:53:43;2.90;;;1.00;;
27201;SDS011;14717;46.924;15.474;2023-04-03T09:58:40;1.38;;;0.63;;
27201;SDS011;14717;46.924;15.474;2023-04-03T10:04:04;1.02;;;0.70;;
27201;SDS011;14717;46.924;15.474;2023-04-03T10:06:30;1.90;;;0.90;;
27201;SDS011;14717;46.924;15.474;2023-04-03T10:09:06;1.85;;;0.73;;
27201;SDS011;14717;46.924;15.474;2023-04-03T10:14:30;1.30;;;0.90;;
27201;SDS011;14717;46.924;15.474;2023-04-03T10:19:43;0.88;;;0.70;;
27201;SDS011;14717;46.924;15.474;2023-04-03T10:22:16;1.73;;;0.82;;
27201;SDS011;14717;46.924;15.474;2023-04-03T10:24:48;1.27;;;0.65;;
27201;SDS011;14717;46.924;15.474;2023-04-03T10:27:22;1.73;;;0.80;;
27201;SDS011;14717;46.924;15.474;2023-04-03T10:46:18;2.40;;;0.80;;
27201;SDS011;14717;46.924;15.474;2023-04-03T10:53:54;1.10;;;0.60;;
27201;SDS011;14717;46.924;15.474;2023-04-03T10:56:35;1.90;;;0.95;;
27201;SDS011;14717;46.924;15.474;2023-04-03T11:01:44;0.93;;;0.60;;
27201;SDS011;14717;46.924;15.474;2023-04-03T11:04:12;1.23;;;0.50;;
27201;SDS011;14717;46.924;15.474;2023-04-03T11:09:15;0.70;;;0.70;;
27201;SDS011;14717;46.924;15.474;2023-04-03T11:11:46;1.17;;;0.63;;
27201;SDS011;14717;46.924;15.474;2023-04-03T11:14:33;1.48;;;0.60;;
27201;SDS011;14717;46.924;15.474;2023-04-03T11:22:30;2.75;;;0.95;;
27201;SDS011;14717;46.924;15.474;2023-04-03T11:27:33;4.53;;;0.85;;
27201;SDS011;14717;46.924;15.474;2023-04-03T11:30:06;1.50;;;0.80;;
27201;SDS011;14717;46.924;15.474;2023-04-03T11:32:48;0.68;;;0.40;;
27201;SDS011;14717;46.924;15.474;2023-04-03T11:35:30;3.47;;;0.77;;
27201;SDS011;14717;46.924;15.474;2023-04-03T11:37:58;0.82;;;0.60;;
27201;SDS011;14717;46.924;15.474;2023-04-03T11:40:36;1.55;;;0.80;;
27201;SDS011;14717;46.924;15.474;2023-04-03T11:43:07;1.00;;;0.65;;
27201;SDS011;14717;46.924;15.474;2023-04-03T11:45:50;1.30;;;0.80;;
27201;SDS011;14717;46.924;15.474;2023-04-03T11:50:57;0.77;;;0.60;;
27201;SDS011;14717;46.924;15.474;2023-04-03T11:53:28;4.25;;;0.88;;
27201;SDS011;14717;46.924;15.474;2023-04-03T11:55:59;0.95;;;0.55;;
27201;SDS011;14717;46.924;15.474;2023-04-03T12:00:54;0.82;;;0.60;;
27201;SDS011;14717;46.924;15.474;2023-04-03T12:05:52;0.63;;;0.50;;
27201;SDS011;14717;46.924;15.474;2023-04-03T12:11:15;2.15;;;0.85;;
27201;SDS011;14717;46.924;15.474;2023-04-03T12:21:15;1.08;;;0.80;;
27201;SDS011;14717;46.924;15.474;2023-04-03T12:24:00;0.80;;;0.60;;
27201;SDS011;14717;46.924;15.474;2023-04-03T12:32:10;0.88;;;0.65;;
27201;SDS011;14717;46.924;15.474;2023-04-03T12:45:30;1.50;;;0.90;;
27201;SDS011;14717;46.924;15.474;2023-04-03T12:48:06;1.58;;;0.90;;
27201;SDS011;14717;46.924;15.474;2023-04-03T12:50:43;1.15;;;0.70;;
27201;SDS011;14717;46.924;15.474;2023-04-03T12:55:57;0.93;;;0.68;;
27201;SDS011;14717;46.924;15.474;2023-04-03T12:58:54;1.00;;;0.63;;
27201;SDS011;14717;46.924;15.474;2023-04-03T13:01:37;0.82;;;0.70;;
27201;SDS011;14717;46.924;15.474;2023-04-03T13:04:02;0.80;;;0.65;;
27201;SDS011;14717;46.924;15.474;2023-04-03T13:06:33;2.72;;;1.00;;
27201;SDS011;14717;46.924;15.474;2023-04-03T13:09:03;2.50;;;1.02;;
27201;SDS011;14717;46.924;15.474;2023-04-03T13:11:30;1.77;;;0.75;;
27201;SDS011;14717;46.924;15.474;2023-04-03T13:14:02;2.05;;;0.98;;
27201;SDS011;14717;46.924;15.474;2023-04-03T13:16:30;1.55;;;1.08;;
27201;SDS011;14717;46.924;15.474;2023-04-03T13:18:57;2.22;;;0.80;;
27201;SDS011;14717;46.924;15.474;2023-04-03T13:21:27;1.73;;;0.90;;
27201;SDS011;14717;46.924;15.474;2023-04-03T13:23:56;1.40;;;0.80;;
27201;SDS011;14717;46.924;15.474;2023-04-03T13:26:26;1.67;;;0.57;;
27201;SDS011;14717;46.924;15.474;2023-04-03T13:28:59;2.92;;;0.77;;
27201;SDS011;14717;46.924;15.474;2023-04-03T13:31:32;1.08;;;0.70;;
27201;SDS011;14717;46.924;15.474;2023-04-03T13:34:10;3.53;;;0.90;;
27201;SDS011;14717;46.924;15.474;2023-04-03T13:37:11;2.05;;;0.93;;
27201;SDS011;14717;46.924;15.474;2023-04-03T13:39:37;1.80;;;0.90;;
27201;SDS011;14717;46.924;15.474;2023-04-03T13:42:25;1.50;;;0.90;;
27201;SDS011;14717;46.924;15.474;2023-04-03T13:47:39;1.42;;;0.75;;
27201;SDS011;14717;46.924;15.474;2023-04-03T13:52:43;1.70;;;1.10;;
27201;SDS011;14717;46.924;15.474;2023-04-03T13:55:26;1.70;;;0.68;;
27201;SDS011;14717;46.924;15.474;2023-04-03T13:57:56;0.93;;;0.70;;
27201;SDS011;14717;46.924;15.474;2023-04-03T14:03:30;0.88;;;0.55;;
27201;SDS011;14717;46.924;15.474;2023-04-03T14:08:23;1.45;;;0.70;;
27201;SDS011;14717;46.924;15.474;2023-04-03T14:10:48;1.55;;;0.88;;
27201;SDS011;14717;46.924;15.474;2023-04-03T14:13:16;2.05;;;0.90;;
27201;SDS011;14717;46.924;15.474;2023-04-03T14:15:43;0.88;;;0.70;;
27201;SDS011;14717;46.924;15.474;2023-04-03T14:18:11;1.40;;;1.10;;
27201;SDS011;14717;46.924;15.474;2023-04-03T14:20:37;1.42;;;0.95;;
27201;SDS011;14717;46.924;15.474;2023-04-03T14:23:03;3.55;;;0.73;;
27201;SDS011;14717;46.924;15.474;2023-04-03T14:25:28;1.27;;;0.85;;
27201;SDS011;14717;46.924;15.474;2023-04-03T14:27:54;2.45;;;0.90;;
27201;SDS011;14717;46.924;15.474;2023-04-03T14:30:27;3.80;;;1.00;;
27201;SDS011;14717;46.924;15.474;2023-04-03T14:32:56;1.50;;;0.80;;
27201;SDS011;14717;46.924;15.474;2023-04-03T14:35:23;1.77;;;0.80;;
27201;SDS011;14717;46.924;15.474;2023-04-03T14:40:16;1.40;;;0.93;;
27201;SDS011;14717;46.924;15.474;2023-04-03T14:42:47;1.73;;;0.60;;
27201;SDS011;14717;46.924;15.474;2023-04-03T14:45:13;1.58;;;0.95;;
27201;SDS011;14717;46.924;15.474;2023-04-03T14:47:53;1.35;;;0.98;;
27201;SDS011;14717;46.924;15.474;2023-04-03T14:50:22;1.05;;;0.90;;
27201;SDS011;14717;46.924;15.474;2023-04-03T14:52:50;2.08;;;1.10;;
27201;SDS011;14717;46.924;15.474;2023-04-03T14:55:17;2.00;;;1.10;;
27201;SDS011;14717;46.924;15.474;2023-04-03T14:57:44;2.67;;;1.00;;
27201;SDS011;14717;46.924;15.474;2023-04-03T15:00:12;2.83;;;1.20;;
27201;SDS011;14717;46.924;15.474;2023-04-03T15:02:39;2.35;;;0.93;;
27201;SDS011;14717;46.924;15.474;2023-04-03T15:05:06;1.58;;;1.13;;
27201;SDS011;14717;46.924;15.474;2023-04-03T15:07:37;1.52;;;1.00;;
27201;SDS011;14717;46.924;15.474;2023-04-03T15:10:18;2.17;;;1.15;;
27201;SDS011;14717;46.924;15.474;2023-04-03T15:12:48;1.17;;;0.90;;
27201;SDS011;14717;46.924;15.474;2023-04-03T15:15:15;1.95;;;0.85;;
27201;SDS011;14717;46.924;15.474;2023-04-03T15:17:42;1.42;;;0.90;;
27201;SDS011;14717;46.924;15.474;2023-04-03T15:20:15;1.45;;;0.82;;
27201;SDS011;14717;46.924;15.474;2023-04-03T15:22:45;1.77;;;0.80;;
27201;SDS011;14717;46.924;15.474;2023-04-03T15:25:11;1.20;;;0.90;;
27201;SDS011;14717;46.924;15.474;2023-04-03T15:27:36;1.95;;;1.15;;
27201;SDS011;14717;46.924;15.474;2023-04-03T15:30:03;2.05;;;0.90;;
27201;SDS011;14717;46.924;15.474;2023-04-03T15:32:30;2.22;;;1.13;;
27201;SDS011;14717;46.924;15.474;2023-04-03T15:34:56;0.90;;;0.80;;
27201;SDS011;14717;46.924;15.474;2023-04-03T15:37:21;1.92;;;1.50;;
27201;SDS011;14717;46.924;15.474;2023-04-03T15:39:47;1.38;;;1.00;;
27201;SDS011;14717;46.924;15.474;2023-04-03T15:42:12;1.77;;;0.90;;
27201;SDS011;14717;46.924;15.474;2023-04-03T15:44:38;2.13;;;1.13;;
27201;SDS011;14717;46.924;15.474;2023-04-03T15:47:03;1.92;;;1.02;;
27201;SDS011;14717;46.924;15.474;2023-04-03T15:49:29;1.27;;;1.00;;
27201;SDS011;14717;46.924;15.474;2023-04-03T15:51:57;1.25;;;0.90;;
27201;SDS011;14717;46.924;15.474;2023-04-03T15:54:23;2.20;;;1.05;;
27201;SDS011;14717;46.924;15.474;2023-04-03T15:56:49;3.45;;;1.27;;
27201;SDS011;14717;46.924;15.474;2023-04-03T15:59:15;2.38;;;1.17;;
27201;SDS011;14717;46.924;15.474;2023-04-03T16:01:40;1.63;;;0.85;;
27201;SDS011;14717;46.924;15.474;2023-04-03T16:04:07;1.60;;;0.98;;
27201;SDS011;14717;46.924;15.474;2023-04-03T16:06:34;3.08;;;1.55;;
27201;SDS011;14717;46.924;15.474;2023-04-03T16:08:59;1.85;;;1.10;;
27201;SDS011;14717;46.924;15.474;2023-04-03T16:11:25;1.98;;;1.10;;
27201;SDS011;14717;46.924;15.474;2023-04-03T16:13:52;2.30;;;1.08;;
27201;SDS011;14717;46.924;15.474;2023-04-03T16:16:19;2.58;;;1.00;;
27201;SDS011;14717;46.924;15.474;2023-04-03T16:18:45;2.90;;;1.27;;
27201;SDS011;14717;46.924;15.474;2023-04-03T16:21:12;2.45;;;1.00;;
27201;SDS011;14717;46.924;15.474;2023-04-03T16:23:40;1.60;;;1.17;;
27201;SDS011;14717;46.924;15.474;2023-04-03T16:26:06;1.55;;;1.00;;
27201;SDS011;14717;46.924;15.474;2023-04-03T16:28:31;3.30;;;1.10;;
27201;SDS011;14717;46.924;15.474;2023-04-03T16:30:57;2.65;;;1.40;;
27201;SDS011;14717;46.924;15.474;2023-04-03T16:33:22;1.60;;;1.05;;
27201;SDS011;14717;46.924;15.474;2023-04-03T16:35:50;1.83;;;1.08;;
27201;SDS011;14717;46.924;15.474;2023-04-03T16:38:16;3.85;;;1.52;;
27201;SDS011;14717;46.924;15.474;2023-04-03T16:40:43;1.88;;;1.20;;
27201;SDS011;14717;46.924;15.474;2023-04-03T16:43:10;2.85;;;1.30;;
27201;SDS011;14717;46.924;15.474;2023-04-03T16:45:35;3.60;;;1.58;;